Ojmjakon, Russia
Current Conditions -  °F | °C
As of 4:00 AM on Friday 24 Oct 2014 (Local Time) from UHMM Reporting Station
Scattered Clouds Scattered Clouds  
Wind Chill: -9°   Ceiling: Unl
Heat Index: -9°   Visibility: 6mi
Dew Point: -13°   Wind: 0mph
Humidity: 84%   Direction: NA
Pressure: 29.41"   Gusts: NA
Location:  63.25°N, 143.15°E
Report Text: UHMM 231700Z 00000MPS 9999 SCT200 M23/M25 Q0996 RMK QFE732
Loading
Personal Weather Stations






























Interactive Weather Map
Tropical Storm Tracking
New forecast layout! Learn more

10-Day Weather Forecast

Advertisements
Track Severe Weather on mobile